createdAt,value
2019-03-25T00:01:17.596Z,62.58
2019-03-25T00:03:46.382Z,62.55
2019-03-25T00:06:14.863Z,62.37
2019-03-25T00:08:43.387Z,62.56
2019-03-25T00:11:11.677Z,62.52
2019-03-25T00:13:40.191Z,62.99
2019-03-25T00:16:08.652Z,62.73
2019-03-25T00:18:36.935Z,62.58
2019-03-25T00:21:05.373Z,62.33
2019-03-25T00:23:33.612Z,62.23
2019-03-25T00:26:02.038Z,62.00
2019-03-25T00:28:30.636Z,62.06
2019-03-25T00:30:58.973Z,62.17
2019-03-25T00:33:27.841Z,62.14
2019-03-25T00:35:56.147Z,62.08
2019-03-25T00:38:24.436Z,62.02
2019-03-25T00:40:52.854Z,61.97
2019-03-25T00:43:21.760Z,61.85
2019-03-25T00:45:50.117Z,61.77
2019-03-25T00:48:18.354Z,61.62
2019-03-25T00:50:47.271Z,61.47
2019-03-25T00:53:28.875Z,61.39
2019-03-25T00:55:57.175Z,61.29
2019-03-25T00:58:25.554Z,61.25
2019-03-25T01:00:53.884Z,61.14
2019-03-25T01:03:22.172Z,61.10
2019-03-25T01:05:51.212Z,61.04
2019-03-25T01:08:19.592Z,61.16
2019-03-25T01:10:47.883Z,61.18
2019-03-25T01:13:16.269Z,61.24
2019-03-25T01:15:44.557Z,61.27
2019-03-25T01:18:17.220Z,61.28
2019-03-25T01:20:43.165Z,60.95
2019-03-25T01:23:12.322Z,60.92
2019-03-25T01:25:40.666Z,60.91
2019-03-25T01:28:09.047Z,60.64
2019-03-25T01:30:37.367Z,60.56
2019-03-25T01:33:05.629Z,60.74
2019-03-25T01:35:34.026Z,60.76
2019-03-25T01:38:02.312Z,60.93
2019-03-25T01:40:30.661Z,60.90
2019-03-25T01:42:58.960Z,60.93
2019-03-25T01:45:27.264Z,60.92
2019-03-25T01:47:55.537Z,60.99
2019-03-25T01:50:23.970Z,61.03
2019-03-25T01:52:52.332Z,61.13
2019-03-25T01:55:20.655Z,61.25
2019-03-25T01:57:48.964Z,61.49
2019-03-25T02:00:17.502Z,61.67
2019-03-25T02:02:45.803Z,61.80
2019-03-25T02:05:14.290Z,62.39
2019-03-25T02:07:42.593Z,63.00
2019-03-25T02:10:11.440Z,63.34
2019-03-25T02:12:39.734Z,64.48
2019-03-25T02:15:08.844Z,63.95
2019-03-25T02:17:37.075Z,64.54
2019-03-25T02:20:05.597Z,64.85
2019-03-25T02:22:34.065Z,65.32
2019-03-25T02:25:03.212Z,65.52
2019-03-25T02:27:31.556Z,65.38
2019-03-25T02:29:59.800Z,65.85
2019-03-25T02:32:28.121Z,65.90
2019-03-25T02:34:56.376Z,66.07
2019-03-25T02:37:24.685Z,66.31
2019-03-25T02:39:52.985Z,66.48
2019-03-25T02:42:21.373Z,66.48
2019-03-25T02:44:49.646Z,66.48
2019-03-25T02:47:17.987Z,66.98
2019-03-25T02:49:46.251Z,66.63
2019-03-25T02:52:14.718Z,66.60
2019-03-25T02:54:43.004Z,66.58
2019-03-25T02:57:13.757Z,66.62
2019-03-25T02:59:42.104Z,66.67
2019-03-25T03:02:10.418Z,66.59
2019-03-25T03:04:38.739Z,66.61
2019-03-25T03:07:07.120Z,66.62
2019-03-25T03:09:35.402Z,66.73
2019-03-25T03:12:04.067Z,66.67
2019-03-25T03:14:32.368Z,66.88
2019-03-25T03:17:00.804Z,67.06
2019-03-25T03:19:29.055Z,67.24
2019-03-25T03:21:57.498Z,67.34
2019-03-25T03:24:25.870Z,67.41
2019-03-25T03:26:54.194Z,67.40
2019-03-25T03:29:22.469Z,67.33
2019-03-25T03:31:50.771Z,67.36
2019-03-25T03:34:19.575Z,67.27
2019-03-25T03:36:47.998Z,67.26
2019-03-25T03:39:16.393Z,67.24
2019-03-25T03:41:44.733Z,67.49
2019-03-25T03:44:13.658Z,67.36
2019-03-25T03:46:42.008Z,67.38
2019-03-25T03:49:10.307Z,67.67
2019-03-25T03:51:38.737Z,67.64
2019-03-25T03:54:07.409Z,67.94
2019-03-25T03:56:36.554Z,67.96
2019-03-25T03:59:05.042Z,68.17
2019-03-25T04:01:35.298Z,68.28
2019-03-25T04:04:03.627Z,68.20
2019-03-25T04:06:31.966Z,68.44
2019-03-25T04:09:00.410Z,68.25
2019-03-25T04:11:28.799Z,68.33
2019-03-25T04:13:57.166Z,68.12
2019-03-25T04:16:25.531Z,68.39
2019-03-25T04:18:53.859Z,68.29
2019-03-25T04:21:22.724Z,68.25
2019-03-25T04:23:51.051Z,68.36
2019-03-25T04:26:28.672Z,68.11
2019-03-25T04:28:50.185Z,68.28
2019-03-25T04:31:19.268Z,68.25
2019-03-25T04:33:47.698Z,68.29
2019-03-25T04:36:16.191Z,68.32
2019-03-25T04:38:44.532Z,68.23
2019-03-25T04:41:13.339Z,68.32
2019-03-25T04:43:41.742Z,68.35
2019-03-25T04:46:10.026Z,68.14
2019-03-25T04:48:38.843Z,68.32
2019-03-25T04:51:07.593Z,68.29
2019-03-25T04:53:35.892Z,68.36
2019-03-25T04:56:04.380Z,68.56
2019-03-25T04:58:32.710Z,68.44
2019-03-25T05:01:00.952Z,68.47
2019-03-25T05:03:29.261Z,69.47
2019-03-25T05:05:57.616Z,69.15
2019-03-25T05:08:26.080Z,68.73
2019-03-25T05:10:54.464Z,68.61
2019-03-25T05:13:22.770Z,68.73
2019-03-25T05:15:51.025Z,68.85
2019-03-25T05:18:19.933Z,68.75
2019-03-25T05:20:48.197Z,68.72
2019-03-25T05:23:17.477Z,68.89
2019-03-25T05:25:45.714Z,68.69
2019-03-25T05:28:14.024Z,68.75
2019-03-25T05:30:42.327Z,68.93
2019-03-25T05:33:18.318Z,69.14
2019-03-25T05:35:46.926Z,69.21
2019-03-25T05:38:15.522Z,69.23
2019-03-25T05:40:43.738Z,69.06
2019-03-25T05:43:12.126Z,69.49
2019-03-25T05:45:41.201Z,69.71
2019-03-25T05:48:09.525Z,69.58
2019-03-25T05:50:38.529Z,69.51
2019-03-25T05:53:06.935Z,69.61
2019-03-25T05:55:35.236Z,69.67
2019-03-25T05:58:03.866Z,69.67
2019-03-25T06:00:34.434Z,70.06
2019-03-25T06:03:02.844Z,70.05
2019-03-25T06:05:31.269Z,70.13
2019-03-25T06:07:59.556Z,70.19
2019-03-25T06:10:27.954Z,70.13
2019-03-25T06:12:57.030Z,70.21
2019-03-25T06:15:25.383Z,71.20
2019-03-25T06:17:53.685Z,70.39
2019-03-25T06:20:22.024Z,70.64
2019-03-25T06:22:50.321Z,70.26
2019-03-25T06:25:18.927Z,70.76
2019-03-25T06:27:47.832Z,70.30
2019-03-25T06:30:16.888Z,70.16
2019-03-25T06:32:45.176Z,70.06
2019-03-25T06:35:19.458Z,69.79
2019-03-25T06:37:47.740Z,69.73
2019-03-25T06:40:17.142Z,69.46
2019-03-25T06:42:45.445Z,69.22
2019-03-25T06:45:14.478Z,69.20
2019-03-25T06:47:42.876Z,69.42
2019-03-25T06:50:11.632Z,69.03
2019-03-25T06:52:40.056Z,68.43
2019-03-25T06:55:08.799Z,68.07
2019-03-25T06:57:38.633Z,67.88
2019-03-25T07:00:08.943Z,67.79
2019-03-25T07:02:37.206Z,67.61
2019-03-25T07:05:06.782Z,67.54
2019-03-25T07:07:35.136Z,67.59
2019-03-25T07:10:03.985Z,66.56
2019-03-25T07:12:32.334Z,66.72
2019-03-25T07:15:00.677Z,66.35
2019-03-25T07:17:28.938Z,66.18
2019-03-25T07:19:57.256Z,65.95
2019-03-25T07:22:25.717Z,65.15
2019-03-25T07:24:54.057Z,65.33
2019-03-25T07:27:22.339Z,65.09
2019-03-25T07:29:50.667Z,63.83
2019-03-25T07:32:19.003Z,63.18
2019-03-25T07:34:47.319Z,63.20
2019-03-25T07:37:23.844Z,63.46
2019-03-25T07:39:52.630Z,62.56
2019-03-25T07:42:20.868Z,62.27
2019-03-25T07:44:50.039Z,62.30
2019-03-25T07:47:18.373Z,62.60
2019-03-25T07:49:46.698Z,62.12
2019-03-25T07:52:15.064Z,61.43
2019-03-25T07:54:44.109Z,61.43
2019-03-25T07:57:12.502Z,61.29
2019-03-25T07:59:40.922Z,61.41
2019-03-25T08:02:09.183Z,61.27
2019-03-25T08:04:38.755Z,60.63
2019-03-25T08:07:07.243Z,60.62
2019-03-25T08:09:35.518Z,60.33
2019-03-25T08:12:03.827Z,60.41
2019-03-25T08:14:32.300Z,59.83
2019-03-25T08:17:00.576Z,59.90
2019-03-25T08:19:29.555Z,58.89
2019-03-25T08:21:57.868Z,59.05
2019-03-25T08:24:26.241Z,58.57
2019-03-25T08:26:54.575Z,55.43
2019-03-25T08:29:22.829Z,57.19
2019-03-25T08:31:51.655Z,56.73
2019-03-25T08:34:19.907Z,56.00
2019-03-25T08:36:48.339Z,55.06
2019-03-25T08:39:19.632Z,53.62
2019-03-25T08:41:48.739Z,56.10
2019-03-25T08:44:17.249Z,53.70
2019-03-25T08:46:45.700Z,52.89
2019-03-25T08:49:13.947Z,51.17
2019-03-25T08:51:42.270Z,50.99
2019-03-25T08:54:10.554Z,51.77
2019-03-25T08:56:38.836Z,50.83
2019-03-25T08:59:08.321Z,50.68
2019-03-25T09:01:36.638Z,49.60
2019-03-25T09:04:05.010Z,50.68
2019-03-25T09:06:33.315Z,50.54
2019-03-25T09:09:01.858Z,48.66
2019-03-25T09:11:30.139Z,49.69
2019-03-25T09:13:58.404Z,51.01
2019-03-25T09:16:26.860Z,51.32
2019-03-25T09:18:55.138Z,51.64
2019-03-25T09:21:23.484Z,51.91
2019-03-25T09:23:51.724Z,52.31
2019-03-25T09:26:20.275Z,52.78
2019-03-25T09:28:48.667Z,52.75
2019-03-25T09:31:19.816Z,53.11
2019-03-25T09:33:48.523Z,53.47
2019-03-25T09:36:20.123Z,52.58
2019-03-25T09:38:48.992Z,52.11
2019-03-25T09:41:20.055Z,52.18
2019-03-25T09:43:48.696Z,51.68
2019-03-25T09:46:17.169Z,51.15
2019-03-25T09:48:45.692Z,51.45
2019-03-25T09:51:14.472Z,50.63
2019-03-25T09:53:44.157Z,51.05
2019-03-25T09:56:12.663Z,50.94
2019-03-25T09:58:41.097Z,52.08
2019-03-25T10:01:09.608Z,51.64
2019-03-25T10:03:38.133Z,50.57
2019-03-25T10:06:06.606Z,50.57
2019-03-25T10:08:35.118Z,50.25
2019-03-25T10:11:03.631Z,50.45
2019-03-25T10:13:32.069Z,50.92
2019-03-25T10:16:00.517Z,50.88
2019-03-25T10:18:29.046Z,50.23
2019-03-25T10:20:57.409Z,49.60
2019-03-25T10:23:25.733Z,48.25
2019-03-25T10:25:55.097Z,48.30
2019-03-25T10:28:23.488Z,48.34
2019-03-25T10:30:51.974Z,48.69
2019-03-25T10:33:20.517Z,47.72
2019-03-25T10:35:48.898Z,45.16
2019-03-25T10:38:19.745Z,45.01
2019-03-25T10:40:47.508Z,45.42
2019-03-25T10:43:16.863Z,45.52
2019-03-25T10:45:45.216Z,44.56
2019-03-25T10:48:13.608Z,45.58
2019-03-25T10:50:41.964Z,44.92
2019-03-25T10:53:10.397Z,43.83
2019-03-25T10:55:39.308Z,43.90
2019-03-25T10:58:07.698Z,44.34
2019-03-25T11:00:36.386Z,44.82
2019-03-25T11:03:04.882Z,45.62
2019-03-25T11:05:33.140Z,46.68
2019-03-25T11:08:01.705Z,50.56
2019-03-25T11:10:30.169Z,49.51
2019-03-25T11:12:58.547Z,51.63
2019-03-25T11:15:26.902Z,51.82
2019-03-25T11:17:55.251Z,53.94
2019-03-25T11:20:23.613Z,52.96
2019-03-25T11:22:52.541Z,49.83
2019-03-25T11:25:20.796Z,49.90
2019-03-25T11:27:54.360Z,50.59
2019-03-25T11:30:33.837Z,53.30
2019-03-25T11:33:02.724Z,55.69
2019-03-25T11:35:31.768Z,57.67
2019-03-25T11:38:00.077Z,59.29
2019-03-25T11:40:28.319Z,62.66
2019-03-25T11:42:56.669Z,63.32
2019-03-25T11:45:25.175Z,62.31
2019-03-25T11:47:53.414Z,63.94
2019-03-25T11:50:21.777Z,64.86
2019-03-25T11:52:50.314Z,65.10
2019-03-25T11:55:18.712Z,65.21
2019-03-25T11:57:47.758Z,65.11
2019-03-25T12:00:16.328Z,65.42
2019-03-25T12:02:44.673Z,65.85
2019-03-25T12:05:13.795Z,66.79
2019-03-25T12:07:42.853Z,67.62
2019-03-25T12:10:11.489Z,70.27
2019-03-25T12:26:01.073Z,72.16
2019-03-25T12:28:29.395Z,72.14
2019-03-25T12:30:57.688Z,72.46
2019-03-25T12:33:28.515Z,71.74
2019-03-25T12:35:59.228Z,72.40
2019-03-25T12:38:27.439Z,73.10
2019-03-25T12:40:55.841Z,71.81
2019-03-25T12:43:24.249Z,71.68
2019-03-25T12:45:52.621Z,71.86
2019-03-25T12:48:20.949Z,68.69
2019-03-25T12:50:49.223Z,69.13
2019-03-25T12:53:17.427Z,69.64
2019-03-25T12:55:46.756Z,68.65
2019-03-25T12:58:15.183Z,67.15
2019-03-25T13:00:44.196Z,66.99
2019-03-25T13:03:12.586Z,68.52
2019-03-25T13:05:41.041Z,67.08
2019-03-25T13:08:09.449Z,67.50
2019-03-25T13:10:37.844Z,68.05
2019-03-25T13:13:06.275Z,67.87
2019-03-25T13:15:35.458Z,68.98
2019-03-25T13:18:03.951Z,68.77
2019-03-25T13:20:32.214Z,68.62
2019-03-25T13:23:00.437Z,67.70
2019-03-25T13:25:28.724Z,67.70
2019-03-25T13:28:00.431Z,68.86
2019-03-25T13:30:28.921Z,67.90
2019-03-25T13:32:57.244Z,68.52
2019-03-25T13:35:26.626Z,68.80
2019-03-25T13:37:54.864Z,67.27
2019-03-25T13:40:23.110Z,66.60
2019-03-25T13:42:51.436Z,66.84
2019-03-25T13:45:19.768Z,68.03
2019-03-25T13:47:47.997Z,66.02
2019-03-25T13:50:16.470Z,66.17
2019-03-25T13:52:44.719Z,66.86
2019-03-25T13:55:13.185Z,66.34
2019-03-25T13:57:41.404Z,66.50
2019-03-25T14:00:33.037Z,65.82
2019-03-25T14:03:01.444Z,66.06
2019-03-25T14:05:29.735Z,66.91
2019-03-25T14:07:57.955Z,66.96
2019-03-25T14:10:26.248Z,67.40
2019-03-25T14:12:54.477Z,67.90
2019-03-25T14:15:22.758Z,68.28
2019-03-25T14:17:51.027Z,69.66
2019-03-25T14:20:19.487Z,68.75
2019-03-25T14:22:47.704Z,72.00
2019-03-25T14:25:15.957Z,72.22
2019-03-25T14:27:44.229Z,73.68
2019-03-25T14:30:15.203Z,71.47
2019-03-25T14:32:43.689Z,69.26
2019-03-25T14:35:13.909Z,68.92
2019-03-25T14:37:42.194Z,67.25
2019-03-25T14:40:10.544Z,68.33
2019-03-25T14:42:38.863Z,68.38
2019-03-25T14:45:07.311Z,68.07
2019-03-25T14:47:35.586Z,68.63
2019-03-25T14:50:06.028Z,68.56
2019-03-25T14:52:34.295Z,66.23
2019-03-25T14:55:03.429Z,65.04
2019-03-25T14:57:31.776Z,63.97
2019-03-25T15:00:00.321Z,64.20
2019-03-25T15:02:28.741Z,64.38
2019-03-25T15:04:57.165Z,63.80
2019-03-25T15:07:25.590Z,63.63
2019-03-25T15:09:53.834Z,65.04
2019-03-25T15:12:22.111Z,65.51
2019-03-25T15:14:50.335Z,64.48
2019-03-25T15:17:18.632Z,63.73
2019-03-25T15:19:46.860Z,63.50
2019-03-25T15:22:15.258Z,63.87
2019-03-25T15:24:43.503Z,63.30
2019-03-25T15:27:11.768Z,61.88
2019-03-25T15:29:40.783Z,61.99
2019-03-25T15:32:09.254Z,62.49
2019-03-25T15:34:37.489Z,62.78
2019-03-25T15:37:05.736Z,62.74
2019-03-25T15:39:34.557Z,63.18
2019-03-25T15:42:03.093Z,63.86
2019-03-25T15:44:31.323Z,65.28
2019-03-25T15:46:59.725Z,67.16
2019-03-25T15:49:28.072Z,66.98
2019-03-25T15:51:56.433Z,67.43
2019-03-25T15:54:24.660Z,66.23
2019-03-25T15:56:52.948Z,66.26
2019-03-25T15:59:21.175Z,66.34
2019-03-25T16:01:49.735Z,66.11
2019-03-25T16:04:17.981Z,66.36
2019-03-25T16:06:52.151Z,66.08
2019-03-25T16:09:20.382Z,65.57
2019-03-25T16:11:48.747Z,65.26
2019-03-25T16:14:16.988Z,65.21
2019-03-25T16:16:45.285Z,65.49
2019-03-25T16:19:13.600Z,65.34
2019-03-25T16:21:41.833Z,65.46
2019-03-25T16:24:10.112Z,66.10
2019-03-25T16:26:38.368Z,65.79
2019-03-25T16:29:06.669Z,65.38
2019-03-25T16:31:34.923Z,65.11
2019-03-25T16:34:03.214Z,64.46
2019-03-25T16:36:31.463Z,63.94
2019-03-25T16:39:00.943Z,63.93
2019-03-25T16:41:29.299Z,62.79
2019-03-25T16:43:57.680Z,62.30
2019-03-25T16:46:26.483Z,62.39
2019-03-25T16:48:55.434Z,62.39
2019-03-25T16:51:23.834Z,61.39
2019-03-25T16:53:52.725Z,61.32
2019-03-25T16:56:20.936Z,61.63
2019-03-25T16:58:49.233Z,61.15
2019-03-25T17:01:17.453Z,61.35
2019-03-25T17:03:45.922Z,61.88
2019-03-25T17:06:14.452Z,61.84
2019-03-25T17:08:42.757Z,61.62
2019-03-25T17:11:11.040Z,61.60
2019-03-25T17:13:39.456Z,61.83
2019-03-25T17:16:07.701Z,61.84
2019-03-25T17:18:35.999Z,61.96
2019-03-25T17:21:04.394Z,61.83
2019-03-25T17:23:32.654Z,61.99
2019-03-25T17:26:00.894Z,61.92
2019-03-25T17:28:29.200Z,62.32
2019-03-25T17:30:57.528Z,63.97
2019-03-25T17:33:25.807Z,68.07
2019-03-25T17:35:54.627Z,71.82
2019-03-25T17:38:23.624Z,72.78
2019-03-25T17:40:51.849Z,70.69
2019-03-25T17:43:20.835Z,71.38
2019-03-25T17:45:49.077Z,74.49
2019-03-25T17:48:17.357Z,71.81
2019-03-25T17:50:46.110Z,71.56
2019-03-25T17:53:14.335Z,71.55
2019-03-25T17:55:42.679Z,72.21
2019-03-25T17:58:11.119Z,71.46
2019-03-25T18:01:11.573Z,71.52
2019-03-25T18:03:39.918Z,71.37
2019-03-25T18:06:08.405Z,71.61
2019-03-25T18:08:37.177Z,71.57
2019-03-25T18:11:05.432Z,71.52
2019-03-25T18:13:33.991Z,71.50
2019-03-25T18:16:02.263Z,71.29
2019-03-25T18:18:30.692Z,71.41
2019-03-25T18:20:58.992Z,71.22
2019-03-25T18:23:27.206Z,71.24
2019-03-25T18:25:55.485Z,71.31
2019-03-25T18:28:23.720Z,71.49
2019-03-25T18:30:53.142Z,71.49
2019-03-25T18:33:21.399Z,71.80
2019-03-25T18:35:49.653Z,71.75
2019-03-25T18:38:17.882Z,72.15
2019-03-25T18:40:47.078Z,72.72
2019-03-25T18:43:15.398Z,74.25
2019-03-25T18:45:43.893Z,75.38
2019-03-25T18:48:12.131Z,75.37
2019-03-25T18:50:40.721Z,75.74
2019-03-25T18:53:12.253Z,75.08
2019-03-25T18:55:41.055Z,75.55
2019-03-25T18:58:09.503Z,76.69
2019-03-25T19:00:37.896Z,75.28
2019-03-25T19:03:06.207Z,76.39
2019-03-25T19:05:35.338Z,75.30
2019-03-25T19:08:05.036Z,75.82
2019-03-25T19:10:33.428Z,75.30
2019-03-25T19:13:01.756Z,75.09
2019-03-25T19:15:31.051Z,75.29
2019-03-25T19:17:59.274Z,76.01
2019-03-25T19:20:27.592Z,76.61
2019-03-25T19:22:55.814Z,77.27
2019-03-25T19:25:24.188Z,76.93
2019-03-25T19:27:52.438Z,76.32
2019-03-25T19:30:20.712Z,77.17
2019-03-25T19:32:49.028Z,77.43
2019-03-25T19:35:17.727Z,78.99
2019-03-25T19:37:45.999Z,79.56
2019-03-25T19:40:14.805Z,79.10
2019-03-25T19:42:43.040Z,80.23
2019-03-25T19:45:11.742Z,79.40
2019-03-25T19:47:40.735Z,79.29
2019-03-25T19:50:09.509Z,79.46
2019-03-25T19:52:37.754Z,78.73
2019-03-25T19:55:06.737Z,78.67
2019-03-25T19:57:35.054Z,80.74
2019-03-25T20:00:04.252Z,80.92
2019-03-25T20:02:32.497Z,79.70
2019-03-25T20:05:01.012Z,78.88
2019-03-25T20:07:29.593Z,78.49
2019-03-25T20:09:58.494Z,79.92
2019-03-25T20:12:26.785Z,79.64
2019-03-25T20:14:55.791Z,79.52
2019-03-25T20:17:24.183Z,80.04
2019-03-25T20:19:52.557Z,78.73
2019-03-25T20:22:21.611Z,79.42
2019-03-25T20:24:50.325Z,81.68
2019-03-25T20:27:18.659Z,80.92
2019-03-25T20:29:47.444Z,80.87
2019-03-25T20:32:16.021Z,80.42
2019-03-25T20:34:44.450Z,81.10
2019-03-25T20:37:12.806Z,81.35
2019-03-25T20:39:41.028Z,80.38
2019-03-25T20:42:09.570Z,81.27
2019-03-25T20:44:38.060Z,82.25
2019-03-25T20:47:06.330Z,81.75
2019-03-25T20:49:34.533Z,80.49
2019-03-25T20:52:02.971Z,80.53
2019-03-25T20:54:31.371Z,81.58
2019-03-25T20:56:59.652Z,81.13
2019-03-25T20:59:27.958Z,81.43
2019-03-25T21:01:56.250Z,82.78
2019-03-25T21:04:24.551Z,82.11
2019-03-25T21:06:54.574Z,82.06
2019-03-25T21:09:23.032Z,83.31
2019-03-25T21:11:51.433Z,81.74
2019-03-25T21:14:19.864Z,83.30
2019-03-25T21:16:48.243Z,82.75
2019-03-25T21:19:16.503Z,83.51
2019-03-25T21:21:44.924Z,83.79
2019-03-25T21:24:13.146Z,84.35
2019-03-25T21:26:41.546Z,84.69
2019-03-25T21:29:09.971Z,85.49
2019-03-25T21:31:39.244Z,84.93
2019-03-25T21:34:07.812Z,85.50
2019-03-25T21:36:36.149Z,84.65
2019-03-25T21:39:06.161Z,84.40
2019-03-25T21:41:34.451Z,84.40
2019-03-25T21:44:02.962Z,85.02
2019-03-25T21:46:31.306Z,85.14
2019-03-25T21:49:04.458Z,84.95
2019-03-25T21:51:35.344Z,85.23
2019-03-25T21:54:03.798Z,85.61
2019-03-25T21:56:32.029Z,85.92
2019-03-25T21:59:00.616Z,84.31
2019-03-25T22:01:29.151Z,85.36
2019-03-25T22:03:57.760Z,85.66
2019-03-25T22:06:26.732Z,85.67
2019-03-25T22:08:55.052Z,85.35
2019-03-25T22:11:23.314Z,85.37
2019-03-25T22:13:51.612Z,84.85
2019-03-25T22:16:20.611Z,85.74
2019-03-25T22:18:48.914Z,84.70
2019-03-25T22:21:17.158Z,85.12
2019-03-25T22:23:45.534Z,85.56
2019-03-25T22:26:13.782Z,85.17
2019-03-25T22:28:42.121Z,84.54
2019-03-25T22:31:10.343Z,85.66
2019-03-25T22:33:38.762Z,85.80
2019-03-25T22:36:07.021Z,85.46
2019-03-25T22:38:35.315Z,86.12
2019-03-25T22:41:04.222Z,84.67
2019-03-25T22:43:33.635Z,84.40
2019-03-25T22:46:01.948Z,85.65
2019-03-25T22:48:30.276Z,85.41
2019-03-25T22:50:59.206Z,86.50
2019-03-25T22:53:27.561Z,85.95
2019-03-25T22:55:55.880Z,86.44
2019-03-25T22:58:24.175Z,86.22
2019-03-25T23:00:53.099Z,85.99
2019-03-25T23:03:21.407Z,85.53
2019-03-25T23:05:49.807Z,84.85
2019-03-25T23:08:18.209Z,84.09
2019-03-25T23:10:47.227Z,84.30
2019-03-25T23:13:15.634Z,85.54
2019-03-25T23:15:44.031Z,85.23
2019-03-25T23:18:12.365Z,85.34
2019-03-25T23:20:40.575Z,84.28
2019-03-25T23:23:08.884Z,84.09
2019-03-25T23:25:37.152Z,84.12
2019-03-25T23:28:05.537Z,83.40
2019-03-25T23:30:33.868Z,85.13
2019-03-25T23:33:02.215Z,85.21
2019-03-25T23:35:30.462Z,83.74
2019-03-25T23:37:58.816Z,84.99
2019-03-25T23:40:27.043Z,85.13
2019-03-25T23:42:55.819Z,84.87
2019-03-25T23:45:24.119Z,86.55
2019-03-25T23:47:52.389Z,86.44
2019-03-25T23:50:20.759Z,85.28
2019-03-25T23:52:49.907Z,85.98
2019-03-25T23:55:18.231Z,86.61
2019-03-25T23:57:46.595Z,86.54
